KEIK

Erie Municipal Airport

Erie, Colorado, USA
METAR KEIK 231112Z AUTO 00000KT 10SM CLR 05/03 A3028 RMK AO2 T00450026
Observed Flight Rules
Oct-23 @ 11:12 UTC (36 minutes ago) Visual Flight Rules
Visibility Clouds
10 miles
  • Clear skies
Temperatures Readings
Current 5°C / 41°F
Dewpoint 3°C / 37°F
Humidity 87%
Altimeter 30.28" Hg
Pressure 1025 hPa
Elevation 1564
METAR KEIK 231112Z AUTO 00000KT 10SM CLR 05/03 A3028 RMK AO2 T00450026
Observed Flight Rules
Oct-23 @ 11:12 UTC
(36 minutes ago)
VFR
Clouds
  • Clear skies
Temperature Dewpoint
5°C / 41°F 3°C / 37°F
Humidity Altimeter Pressure
87% 30.28" Hg 1025 hPa